createdAt,value
2022-11-08T00:00:11.722Z,12.67
2022-11-08T00:02:40.808Z,12.63
2022-11-08T00:05:26.458Z,12.66
2022-11-08T00:08:11.741Z,12.59
2022-11-08T00:10:56.906Z,12.57
2022-11-08T00:13:41.777Z,12.55
2022-11-08T00:16:08.345Z,12.51
2022-11-08T00:18:34.884Z,12.49
2022-11-08T00:21:03.109Z,12.43
2022-11-08T00:23:29.797Z,12.44
2022-11-08T00:25:56.380Z,12.42
2022-11-08T00:28:25.671Z,12.39
2022-11-08T00:30:52.168Z,12.37
2022-11-08T00:33:20.928Z,12.32
2022-11-08T00:35:47.891Z,12.32
2022-11-08T00:38:14.504Z,12.28
2022-11-08T00:40:41.194Z,12.27
2022-11-08T00:43:07.754Z,12.21
2022-11-08T00:45:34.372Z,12.19
2022-11-08T00:48:00.944Z,12.18
2022-11-08T00:50:27.484Z,12.18
2022-11-08T00:52:56.384Z,12.12
2022-11-08T00:55:23.133Z,12.12
2022-11-08T00:57:59.735Z,12.10
2022-11-08T01:00:30.281Z,12.06
2022-11-08T01:03:18.362Z,11.97
2022-11-08T01:05:45.357Z,12.00
2022-11-08T01:08:14.272Z,11.96
2022-11-08T01:10:42.689Z,11.95
2022-11-08T01:13:09.996Z,11.84
2022-11-08T01:15:40.916Z,11.88
2022-11-08T01:18:12.705Z,11.87
2022-11-08T01:20:49.519Z,11.82
2022-11-08T01:23:18.039Z,11.81
2022-11-08T01:25:46.449Z,11.79
2022-11-08T01:28:14.021Z,11.76
2022-11-08T01:30:43.701Z,11.78
2022-11-08T01:33:13.549Z,11.75
2022-11-08T01:35:40.944Z,11.76
2022-11-08T01:38:07.747Z,11.73
2022-11-08T01:40:41.706Z,11.70
2022-11-08T01:43:30.061Z,11.66
2022-11-08T01:46:18.702Z,11.65
2022-11-08T01:49:04.078Z,11.65
2022-11-08T01:51:42.920Z,11.61
2022-11-08T01:54:19.806Z,11.60
2022-11-08T01:56:46.390Z,11.57
2022-11-08T01:59:15.952Z,11.60
2022-11-08T02:01:45.540Z,11.60
2022-11-08T02:04:13.907Z,11.56
2022-11-08T02:06:42.449Z,11.51
2022-11-08T02:09:10.830Z,11.49
2022-11-08T02:11:38.322Z,11.52
2022-11-08T02:14:05.273Z,11.51
2022-11-08T02:16:31.763Z,11.51
2022-11-08T02:18:58.392Z,11.48
2022-11-08T02:21:35.107Z,11.50
2022-11-08T02:24:10.731Z,11.49
2022-11-08T02:26:38.146Z,11.49
2022-11-08T02:29:31.187Z,11.52
2022-11-08T02:31:59.183Z,11.51
2022-11-08T02:34:47.831Z,11.49
2022-11-08T02:37:18.067Z,11.48
2022-11-08T02:39:44.560Z,11.50
2022-11-08T02:42:16.142Z,11.51
2022-11-08T02:44:45.027Z,11.52
2022-11-08T02:47:11.572Z,11.45
2022-11-08T02:49:38.293Z,11.46
2022-11-08T02:52:07.416Z,11.51
2022-11-08T02:54:34.753Z,11.48
2022-11-08T02:57:03.849Z,11.49
2022-11-08T02:59:30.356Z,11.47
2022-11-08T03:02:02.355Z,11.49
2022-11-08T03:04:28.962Z,11.47
2022-11-08T03:06:57.826Z,11.47
2022-11-08T03:09:27.133Z,11.46
2022-11-08T03:11:56.042Z,11.44
2022-11-08T03:14:22.820Z,11.42
2022-11-08T03:16:49.326Z,11.40
2022-11-08T03:19:15.858Z,11.34
2022-11-08T03:21:42.377Z,11.34
2022-11-08T03:24:12.260Z,11.34
2022-11-08T03:26:38.834Z,11.33
2022-11-08T03:29:05.347Z,11.25
2022-11-08T03:31:34.490Z,11.30
2022-11-08T03:34:01.062Z,11.28
2022-11-08T03:36:29.931Z,11.27
2022-11-08T03:38:59.070Z,11.24
2022-11-08T03:41:25.986Z,11.23
2022-11-08T03:43:52.528Z,11.23
2022-11-08T03:46:21.629Z,11.22
2022-11-08T03:48:48.166Z,11.18
2022-11-08T03:51:14.696Z,11.17
2022-11-08T03:53:41.560Z,11.16
2022-11-08T03:56:08.389Z,11.16
2022-11-08T03:58:35.974Z,11.13
2022-11-08T04:01:06.610Z,11.12
2022-11-08T04:03:33.228Z,11.07
2022-11-08T04:06:01.189Z,11.10
2022-11-08T04:08:30.785Z,11.08
2022-11-08T04:11:18.692Z,11.04
2022-11-08T04:14:04.660Z,11.02
2022-11-08T04:16:34.609Z,11.01
2022-11-08T04:19:20.447Z,11.00
2022-11-08T04:21:48.428Z,10.92
2022-11-08T04:24:18.601Z,10.98
2022-11-08T04:26:45.394Z,10.96
2022-11-08T04:29:13.175Z,10.99
2022-11-08T04:31:40.090Z,10.99
2022-11-08T04:34:06.877Z,10.95
2022-11-08T04:36:33.542Z,10.95
2022-11-08T04:39:00.315Z,10.95
2022-11-08T04:41:29.639Z,10.97
2022-11-08T04:43:57.404Z,10.98
2022-11-08T04:46:27.136Z,10.97
2022-11-08T04:48:56.184Z,10.96
2022-11-08T04:51:27.914Z,10.95
2022-11-08T04:54:02.142Z,10.90
2022-11-08T04:56:34.833Z,10.92
2022-11-08T04:59:01.604Z,10.91
2022-11-08T05:01:33.300Z,10.88
2022-11-08T05:03:59.872Z,10.88
2022-11-08T05:06:29.890Z,10.86
2022-11-08T05:08:58.002Z,10.86
2022-11-08T05:11:26.709Z,10.84
2022-11-08T05:13:53.561Z,10.80
2022-11-08T05:16:25.974Z,10.79
2022-11-08T05:18:52.709Z,10.74
2022-11-08T05:21:39.349Z,10.78
2022-11-08T05:24:08.375Z,10.74
2022-11-08T05:26:38.999Z,10.75
2022-11-08T05:29:06.196Z,10.73
2022-11-08T05:31:33.177Z,10.73
2022-11-08T05:34:00.755Z,10.70
2022-11-08T05:36:28.087Z,10.68
2022-11-08T05:38:57.422Z,10.67
2022-11-08T05:41:25.597Z,10.65
2022-11-08T05:43:54.688Z,10.64
2022-11-08T05:46:22.897Z,10.63
2022-11-08T05:48:50.127Z,10.61
2022-11-08T05:51:19.907Z,10.64
2022-11-08T05:53:49.768Z,10.57
2022-11-08T05:56:17.591Z,10.60
2022-11-08T05:58:44.835Z,10.61
2022-11-08T06:01:16.936Z,10.59
2022-11-08T06:03:46.599Z,10.61
2022-11-08T06:06:21.485Z,10.59
2022-11-08T06:08:51.725Z,10.58
2022-11-08T06:11:25.113Z,10.58
2022-11-08T06:13:52.768Z,10.56
2022-11-08T06:16:20.389Z,10.59
2022-11-08T06:18:47.648Z,10.62
2022-11-08T06:21:16.754Z,10.59
2022-11-08T06:23:43.743Z,10.59
2022-11-08T06:26:10.709Z,10.63
2022-11-08T06:28:37.230Z,10.64
2022-11-08T06:31:04.916Z,10.65
2022-11-08T06:33:32.268Z,10.66
2022-11-08T06:35:58.952Z,10.67
2022-11-08T06:38:25.899Z,10.70
2022-11-08T06:40:54.908Z,10.70
2022-11-08T06:43:21.852Z,10.70
2022-11-08T06:45:48.825Z,10.70
2022-11-08T06:48:17.773Z,10.62
2022-11-08T06:50:44.432Z,10.68
2022-11-08T06:53:13.307Z,10.71
2022-11-08T06:55:39.989Z,10.70
2022-11-08T06:58:06.969Z,10.72
2022-11-08T07:00:34.055Z,10.74
2022-11-08T07:03:04.265Z,10.76
2022-11-08T07:05:32.901Z,10.76
2022-11-08T07:08:00.545Z,10.78
2022-11-08T07:10:29.618Z,10.82
2022-11-08T07:13:03.714Z,10.86
2022-11-08T07:15:31.832Z,10.87
2022-11-08T07:18:08.992Z,10.90
2022-11-08T07:20:36.052Z,10.95
2022-11-08T07:23:05.907Z,11.01
2022-11-08T07:25:32.777Z,11.04
2022-11-08T07:28:02.356Z,11.01
2022-11-08T07:30:29.798Z,11.15
2022-11-08T07:32:57.248Z,11.20
2022-11-08T07:35:25.482Z,11.25
2022-11-08T07:37:52.090Z,11.29
2022-11-08T07:40:18.682Z,11.32
2022-11-08T07:43:10.736Z,11.36
2022-11-08T07:45:34.382Z,11.37
2022-11-08T07:48:11.149Z,11.46
2022-11-08T07:50:39.096Z,11.50
2022-11-08T07:53:05.605Z,11.52
2022-11-08T07:55:41.088Z,11.54
2022-11-08T07:58:09.990Z,11.61
2022-11-08T08:00:38.513Z,11.65
2022-11-08T08:03:07.812Z,11.73
2022-11-08T08:05:42.641Z,11.69
2022-11-08T08:08:12.600Z,11.83
2022-11-08T08:10:40.242Z,11.88
2022-11-08T08:13:08.436Z,11.89
2022-11-08T08:15:35.177Z,12.00
2022-11-08T08:18:06.346Z,12.03
2022-11-08T08:20:33.793Z,12.12
2022-11-08T08:23:01.177Z,12.14
2022-11-08T08:25:31.158Z,12.20
2022-11-08T08:28:01.857Z,12.20
2022-11-08T08:30:30.739Z,12.33
2022-11-08T08:35:57.573Z,12.45
2022-11-08T08:38:24.114Z,12.46
2022-11-08T08:40:53.341Z,12.57
2022-11-08T08:43:20.990Z,12.64
2022-11-08T08:45:50.209Z,12.73
2022-11-08T08:48:17.080Z,12.80
2022-11-08T08:50:43.627Z,12.86
2022-11-08T08:53:15.873Z,12.90
2022-11-08T08:55:43.053Z,12.92
2022-11-08T08:58:10.985Z,12.88
2022-11-08T09:03:24.324Z,12.99
2022-11-08T09:05:51.833Z,13.10
2022-11-08T09:08:21.302Z,13.14
2022-11-08T09:11:00.900Z,13.21
2022-11-08T09:13:37.985Z,13.31
2022-11-08T09:16:17.731Z,13.45
2022-11-08T09:18:46.716Z,13.64
2022-11-08T09:21:20.527Z,13.76
2022-11-08T09:23:47.155Z,13.82
2022-11-08T09:26:16.361Z,13.92
2022-11-08T09:28:46.904Z,14.00
2022-11-08T09:31:14.587Z,14.04
2022-11-08T09:33:41.818Z,14.03
2022-11-08T09:36:12.384Z,14.09
2022-11-08T09:38:38.911Z,14.09
2022-11-08T09:41:23.810Z,14.10
2022-11-08T09:44:11.710Z,14.17
2022-11-08T09:46:57.188Z,14.42
2022-11-08T09:49:33.408Z,14.48
2022-11-08T09:52:03.884Z,14.47
2022-11-08T09:54:43.972Z,14.46
2022-11-08T09:57:35.465Z,14.42
2022-11-08T10:00:12.720Z,14.48
2022-11-08T10:02:41.597Z,14.58
2022-11-08T10:05:15.963Z,14.71
2022-11-08T10:08:01.183Z,14.96
2022-11-08T10:10:49.200Z,15.10
2022-11-08T10:13:40.035Z,15.12
2022-11-08T10:16:15.721Z,15.16
2022-11-08T10:19:15.898Z,15.17
2022-11-08T10:22:04.141Z,15.20
2022-11-08T10:24:54.282Z,15.22
2022-11-08T10:27:42.700Z,15.21
2022-11-08T10:30:26.033Z,15.21
2022-11-08T10:32:56.564Z,15.17
2022-11-08T10:35:38.275Z,15.12
2022-11-08T10:38:20.437Z,15.08
2022-11-08T10:41:15.739Z,15.04
2022-11-08T10:43:49.840Z,14.99
2022-11-08T10:46:39.581Z,15.04
2022-11-08T10:49:18.296Z,15.14
2022-11-08T10:51:46.926Z,15.24
2022-11-08T10:54:53.497Z,15.31
2022-11-08T10:57:37.889Z,15.34
2022-11-08T11:00:26.002Z,15.32
2022-11-08T11:03:08.547Z,15.29
2022-11-08T11:05:37.931Z,15.31
2022-11-08T11:08:07.424Z,15.29
2022-11-08T11:10:45.354Z,15.27
2022-11-08T11:13:23.645Z,15.25
2022-11-08T11:15:56.247Z,15.27
2022-11-08T11:18:25.898Z,15.28
2022-11-08T11:21:10.201Z,15.31
2022-11-08T11:24:05.629Z,15.33
2022-11-08T11:26:34.853Z,15.34
2022-11-08T11:29:04.211Z,15.32
2022-11-08T11:31:35.168Z,15.30
2022-11-08T11:34:16.856Z,15.29
2022-11-08T11:36:57.965Z,15.37
2022-11-08T11:39:35.933Z,15.61
2022-11-08T11:42:24.035Z,15.83
2022-11-08T11:45:20.897Z,15.91
2022-11-08T11:48:11.892Z,16.04
2022-11-08T11:50:41.438Z,16.12
2022-11-08T11:53:18.386Z,16.09
2022-11-08T11:56:03.513Z,16.32
2022-11-08T11:58:29.954Z,16.38
2022-11-08T12:01:13.098Z,16.41
2022-11-08T12:03:53.065Z,16.63
2022-11-08T12:06:27.140Z,16.66
2022-11-08T12:09:20.599Z,16.68
2022-11-08T12:11:47.051Z,16.62
2022-11-08T12:14:32.440Z,16.74
2022-11-08T12:17:31.284Z,16.65
2022-11-08T12:20:47.762Z,16.79
2022-11-08T12:23:32.670Z,16.77
2022-11-08T12:26:41.717Z,16.87
2022-11-08T12:29:46.708Z,16.80
2022-11-08T12:32:32.950Z,16.93
2022-11-08T12:35:30.732Z,16.99
2022-11-08T12:38:03.064Z,16.82
2022-11-08T12:40:45.027Z,16.77
2022-11-08T12:43:27.305Z,16.72
2022-11-08T12:46:00.975Z,16.66
2022-11-08T12:48:48.540Z,16.67
2022-11-08T12:51:15.012Z,16.63
2022-11-08T12:53:56.883Z,16.66
2022-11-08T12:56:29.914Z,16.74
2022-11-08T12:58:56.642Z,16.85
2022-11-08T13:01:26.131Z,16.81
2022-11-08T13:04:13.325Z,16.94
2022-11-08T13:06:58.305Z,16.93
2022-11-08T13:09:47.460Z,16.88
2022-11-08T13:12:35.649Z,16.84
2022-11-08T13:15:03.442Z,16.78
2022-11-08T13:17:30.658Z,16.75
2022-11-08T13:20:05.667Z,16.74
2022-11-08T13:22:32.437Z,16.74
2022-11-08T13:24:59.999Z,16.70
2022-11-08T13:27:37.667Z,16.65
2022-11-08T13:30:04.147Z,16.65
2022-11-08T13:33:02.703Z,16.61
2022-11-08T13:35:53.773Z,16.61
2022-11-08T13:38:29.222Z,16.61
2022-11-08T13:41:21.764Z,16.64
2022-11-08T13:43:53.658Z,16.68
2022-11-08T13:46:20.101Z,16.70
2022-11-08T13:49:17.788Z,16.73
2022-11-08T13:51:45.002Z,16.73
2022-11-08T13:54:23.803Z,16.69
2022-11-08T13:56:58.766Z,16.59
2022-11-08T13:59:33.567Z,16.59
2022-11-08T14:02:27.421Z,16.57
2022-11-08T14:04:54.703Z,16.51
2022-11-08T14:07:44.868Z,16.53
2022-11-08T14:10:25.736Z,16.54
2022-11-08T14:13:04.344Z,16.51
2022-11-08T14:15:37.242Z,16.48
2022-11-08T14:18:24.236Z,16.47
2022-11-08T14:20:50.946Z,16.42
2022-11-08T14:23:21.148Z,16.48
2022-11-08T14:26:37.119Z,16.48
2022-11-08T14:29:11.273Z,16.42
2022-11-08T14:31:37.904Z,16.35
2022-11-08T14:34:04.457Z,16.35
2022-11-08T14:36:31.973Z,16.29
2022-11-08T14:39:19.291Z,16.25
2022-11-08T14:41:51.357Z,16.37
2022-11-08T14:44:21.241Z,16.35
2022-11-08T14:46:49.090Z,16.29
2022-11-08T14:49:18.689Z,16.22
2022-11-08T14:51:46.105Z,16.19
2022-11-08T14:54:22.341Z,16.13
2022-11-08T14:56:50.444Z,16.08
2022-11-08T14:59:17.597Z,16.02
2022-11-08T15:01:48.822Z,16.00
2022-11-08T15:04:21.586Z,15.96
2022-11-08T15:06:59.121Z,15.93
2022-11-08T15:09:29.815Z,15.91
2022-11-08T15:12:00.002Z,15.85
2022-11-08T15:14:30.604Z,15.71
2022-11-08T15:17:03.079Z,15.86
2022-11-08T15:19:39.035Z,15.90
2022-11-08T15:22:31.446Z,15.88
2022-11-08T15:25:19.725Z,15.87
2022-11-08T15:27:48.097Z,15.86
2022-11-08T15:30:38.054Z,15.83
2022-11-08T15:33:05.709Z,15.82
2022-11-08T15:35:39.118Z,15.79
2022-11-08T15:38:24.757Z,15.76
2022-11-08T15:40:54.287Z,15.75
2022-11-08T15:43:33.975Z,15.72
2022-11-08T15:46:05.052Z,15.69
2022-11-08T15:48:31.794Z,15.63
2022-11-08T15:50:58.687Z,15.62
2022-11-08T15:53:29.633Z,15.57
2022-11-08T15:56:02.397Z,15.50
2022-11-08T15:58:36.349Z,15.36
2022-11-08T16:01:04.895Z,15.34
2022-11-08T16:03:33.677Z,15.23
2022-11-08T16:06:00.565Z,15.22
2022-11-08T16:08:27.586Z,15.11
2022-11-08T16:11:01.307Z,15.09
2022-11-08T16:13:39.213Z,15.26
2022-11-08T16:16:16.731Z,15.08
2022-11-08T16:18:43.330Z,14.99
2022-11-08T16:21:11.293Z,14.91
2022-11-08T16:23:41.516Z,14.88
2022-11-08T16:26:16.264Z,14.85
2022-11-08T16:28:45.901Z,14.79
2022-11-08T16:31:20.433Z,14.74
2022-11-08T16:33:53.977Z,14.70
2022-11-08T16:36:25.617Z,14.63
2022-11-08T16:38:59.290Z,14.67
2022-11-08T16:41:26.373Z,14.69
2022-11-08T16:43:53.710Z,14.76
2022-11-08T16:46:21.544Z,14.80
2022-11-08T16:48:53.796Z,14.71
2022-11-08T16:51:21.635Z,14.87
2022-11-08T16:53:49.186Z,14.89
2022-11-08T16:56:15.982Z,14.86
2022-11-08T16:58:43.221Z,14.90
2022-11-08T17:01:16.602Z,14.88
2022-11-08T17:03:43.202Z,14.85
2022-11-08T17:06:19.078Z,14.81
2022-11-08T17:08:46.807Z,14.78
2022-11-08T17:11:20.404Z,14.79
2022-11-08T17:13:47.803Z,14.79
2022-11-08T17:16:15.011Z,14.78
2022-11-08T17:18:41.780Z,14.68
2022-11-08T17:21:38.280Z,14.65
2022-11-08T17:23:58.413Z,14.59
2022-11-08T17:26:27.085Z,14.51
2022-11-08T17:28:56.719Z,14.45
2022-11-08T17:31:23.358Z,14.40
2022-11-08T17:33:49.838Z,14.40
2022-11-08T17:36:21.218Z,14.35
2022-11-08T17:38:47.800Z,14.33
2022-11-08T17:41:15.761Z,14.31
2022-11-08T17:43:43.204Z,14.28
2022-11-08T17:46:11.258Z,14.22
2022-11-08T17:48:38.739Z,14.22
2022-11-08T17:51:05.485Z,14.20
2022-11-08T17:53:35.594Z,14.17
2022-11-08T17:56:04.441Z,14.16
2022-11-08T17:58:34.405Z,14.14
2022-11-08T18:01:03.569Z,14.14
2022-11-08T18:03:30.664Z,14.11
2022-11-08T18:06:01.294Z,14.09
2022-11-08T18:08:30.241Z,14.08
2022-11-08T18:10:57.141Z,14.06
2022-11-08T18:13:27.549Z,14.10
2022-11-08T18:15:54.523Z,14.05
2022-11-08T18:18:21.692Z,14.04
2022-11-08T18:20:54.892Z,14.03
2022-11-08T18:23:22.380Z,14.00
2022-11-08T18:25:49.839Z,13.94
2022-11-08T18:28:17.281Z,13.98
2022-11-08T18:30:47.747Z,14.02
2022-11-08T18:33:16.018Z,13.99
2022-11-08T18:35:45.403Z,14.02
2022-11-08T18:38:13.535Z,14.01
2022-11-08T18:40:42.897Z,14.01
2022-11-08T18:43:09.476Z,14.06
2022-11-08T18:45:38.697Z,14.02
2022-11-08T18:48:06.130Z,13.99
2022-11-08T18:50:32.780Z,13.97
2022-11-08T18:53:04.072Z,14.37
2022-11-08T18:55:31.710Z,14.16
2022-11-08T18:58:00.710Z,14.12
2022-11-08T19:00:27.290Z,14.11
2022-11-08T19:02:53.817Z,14.12
2022-11-08T19:05:20.643Z,14.07
2022-11-08T19:07:47.218Z,14.08
2022-11-08T19:10:13.779Z,14.11
2022-11-08T19:12:40.330Z,14.08
2022-11-08T19:15:07.398Z,13.98
2022-11-08T19:17:35.700Z,14.10
2022-11-08T19:20:02.556Z,14.08
2022-11-08T19:22:29.325Z,14.08
2022-11-08T19:24:55.978Z,14.06
2022-11-08T19:27:23.183Z,14.07
2022-11-08T19:29:52.303Z,14.35
2022-11-08T19:32:18.885Z,14.23
2022-11-08T19:34:47.023Z,14.22
2022-11-08T19:37:13.846Z,14.22
2022-11-08T19:39:40.364Z,14.21
2022-11-08T19:42:07.027Z,14.20
2022-11-08T19:44:33.834Z,14.20
2022-11-08T19:47:00.401Z,14.19
2022-11-08T19:49:28.917Z,14.23
2022-11-08T19:51:55.532Z,14.20
2022-11-08T19:54:22.176Z,14.15
2022-11-08T19:57:04.783Z,14.18
2022-11-08T19:59:31.691Z,14.16
2022-11-08T20:01:59.642Z,13.99
2022-11-08T20:04:26.317Z,14.14
2022-11-08T20:06:55.459Z,14.14
2022-11-08T20:09:27.336Z,14.16
2022-11-08T20:11:58.488Z,14.14
2022-11-08T20:14:25.123Z,14.15
2022-11-08T20:16:54.431Z,14.15
2022-11-08T20:19:23.399Z,14.37
2022-11-08T20:21:50.406Z,14.29
2022-11-08T20:24:17.324Z,14.30
2022-11-08T20:26:44.050Z,14.23
2022-11-08T20:29:11.115Z,14.27
2022-11-08T20:31:39.047Z,14.27
2022-11-08T20:34:09.831Z,14.28
2022-11-08T20:36:41.006Z,14.32
2022-11-08T20:39:08.250Z,14.36
2022-11-08T20:41:37.476Z,14.40
2022-11-08T20:44:05.405Z,14.45
2022-11-08T20:46:33.278Z,14.41
2022-11-08T20:49:01.099Z,14.47
2022-11-08T20:51:31.574Z,14.46
2022-11-08T20:54:00.236Z,14.37
2022-11-08T20:56:27.662Z,14.43
2022-11-08T20:58:54.726Z,14.38
2022-11-08T21:01:24.259Z,14.38
2022-11-08T21:03:52.366Z,14.37
2022-11-08T21:06:22.198Z,14.32
2022-11-08T21:08:59.259Z,14.25
2022-11-08T21:11:29.007Z,14.23
2022-11-08T21:13:55.653Z,14.13
2022-11-08T21:16:31.967Z,14.11
2022-11-08T21:19:07.722Z,14.02
2022-11-08T21:21:34.563Z,14.01
2022-11-08T21:24:01.145Z,13.97
2022-11-08T21:26:27.800Z,13.94
2022-11-08T21:28:56.870Z,13.89
2022-11-08T21:31:24.154Z,13.83
2022-11-08T21:33:50.718Z,13.82
2022-11-08T21:36:18.459Z,13.78
2022-11-08T21:38:45.499Z,13.77
2022-11-08T21:41:13.296Z,13.72
2022-11-08T21:43:43.361Z,13.72
2022-11-08T21:46:20.266Z,13.68
2022-11-08T21:48:48.081Z,13.66
2022-11-08T21:51:16.199Z,13.66
2022-11-08T21:53:50.909Z,13.84
2022-11-08T21:56:27.155Z,13.71
2022-11-08T21:58:53.714Z,13.69
2022-11-08T22:01:24.352Z,13.65
2022-11-08T22:03:56.948Z,13.61
2022-11-08T22:06:24.108Z,13.59
2022-11-08T22:08:50.749Z,13.50
2022-11-08T22:11:17.301Z,13.58
2022-11-08T22:13:48.624Z,13.56
2022-11-08T22:16:17.589Z,13.54
2022-11-08T22:21:41.039Z,13.49
2022-11-08T22:24:11.277Z,13.41
2022-11-08T22:26:38.654Z,13.45
2022-11-08T22:29:05.518Z,13.40
2022-11-08T22:31:32.083Z,13.43
2022-11-08T22:33:59.055Z,13.41
2022-11-08T22:36:25.876Z,13.35
2022-11-08T22:38:52.469Z,13.32
2022-11-08T22:41:20.694Z,13.21
2022-11-08T22:43:47.611Z,13.32
2022-11-08T22:46:14.846Z,13.29
2022-11-08T22:48:41.740Z,13.28
2022-11-08T22:51:08.943Z,13.24
2022-11-08T22:53:37.954Z,13.22
2022-11-08T22:56:10.734Z,13.13
2022-11-08T22:58:38.282Z,13.17
2022-11-08T23:01:08.096Z,13.14
2022-11-08T23:03:34.777Z,13.12
2022-11-08T23:06:01.434Z,13.07
2022-11-08T23:08:28.537Z,13.03
2022-11-08T23:11:16.699Z,13.09
2022-11-08T23:14:01.957Z,13.05
2022-11-08T23:16:37.984Z,12.99
2022-11-08T23:19:28.234Z,13.04
2022-11-08T23:22:14.232Z,13.05
2022-11-08T23:24:42.912Z,13.07
2022-11-08T23:27:29.941Z,13.07
2022-11-08T23:30:15.318Z,13.04
2022-11-08T23:32:46.920Z,13.08
2022-11-08T23:35:14.533Z,13.14
2022-11-08T23:37:41.291Z,13.15
2022-11-08T23:40:28.788Z,13.17
2022-11-08T23:43:34.921Z,13.18
2022-11-08T23:46:12.173Z,13.19
2022-11-08T23:48:41.218Z,13.21
2022-11-08T23:51:08.068Z,13.20
2022-11-08T23:53:36.967Z,13.22
2022-11-08T23:56:04.328Z,13.18
2022-11-08T23:58:32.338Z,13.14
